sensor_id;sensor_type;location;lat;lon;timestamp;P1;durP1;ratioP1;P2;durP2;ratioP2
10465;SDS011;5280;42.600;23.556;2023-03-16T00:05:49;0.60;;;0.60;;
10465;SDS011;5280;42.600;23.556;2023-03-16T00:08:19;0.70;;;0.50;;
10465;SDS011;5280;42.600;23.556;2023-03-16T00:10:46;0.60;;;0.60;;
10465;SDS011;5280;42.600;23.556;2023-03-16T00:13:14;0.70;;;0.70;;
10465;SDS011;5280;42.600;23.556;2023-03-16T00:15:47;0.97;;;0.97;;
10465;SDS011;5280;42.600;23.556;2023-03-16T00:18:15;0.50;;;0.50;;
10465;SDS011;5280;42.600;23.556;2023-03-16T00:20:42;0.70;;;0.70;;
10465;SDS011;5280;42.600;23.556;2023-03-16T00:23:09;0.70;;;0.70;;
10465;SDS011;5280;42.600;23.556;2023-03-16T00:25:37;0.70;;;0.70;;
10465;SDS011;5280;42.600;23.556;2023-03-16T00:28:06;0.60;;;0.60;;
10465;SDS011;5280;42.600;23.556;2023-03-16T00:30:32;0.53;;;0.53;;
10465;SDS011;5280;42.600;23.556;2023-03-16T00:32:59;0.60;;;0.60;;
10465;SDS011;5280;42.600;23.556;2023-03-16T00:35:26;0.50;;;0.50;;
10465;SDS011;5280;42.600;23.556;2023-03-16T00:37:53;0.53;;;0.50;;
10465;SDS011;5280;42.600;23.556;2023-03-16T00:40:21;0.60;;;0.60;;
10465;SDS011;5280;42.600;23.556;2023-03-16T00:42:50;0.57;;;0.57;;
10465;SDS011;5280;42.600;23.556;2023-03-16T00:45:16;0.50;;;0.50;;
10465;SDS011;5280;42.600;23.556;2023-03-16T00:47:43;0.80;;;0.80;;
10465;SDS011;5280;42.600;23.556;2023-03-16T00:50:10;0.50;;;0.50;;
10465;SDS011;5280;42.600;23.556;2023-03-16T00:52:37;0.80;;;0.80;;
10465;SDS011;5280;42.600;23.556;2023-03-16T00:55:04;0.80;;;0.80;;
10465;SDS011;5280;42.600;23.556;2023-03-16T00:57:32;0.70;;;0.70;;
10465;SDS011;5280;42.600;23.556;2023-03-16T01:00:01;0.63;;;0.63;;
10465;SDS011;5280;42.600;23.556;2023-03-16T01:02:37;0.73;;;0.73;;
10465;SDS011;5280;42.600;23.556;2023-03-16T01:05:04;0.80;;;0.80;;
10465;SDS011;5280;42.600;23.556;2023-03-16T01:07:31;0.60;;;0.60;;
10465;SDS011;5280;42.600;23.556;2023-03-16T01:10:00;0.90;;;0.90;;
10465;SDS011;5280;42.600;23.556;2023-03-16T01:12:27;0.63;;;0.63;;
10465;SDS011;5280;42.600;23.556;2023-03-16T01:14:54;0.80;;;0.80;;
10465;SDS011;5280;42.600;23.556;2023-03-16T01:17:22;0.80;;;0.80;;
10465;SDS011;5280;42.600;23.556;2023-03-16T01:19:49;1.00;;;1.00;;
10465;SDS011;5280;42.600;23.556;2023-03-16T01:22:16;0.90;;;0.90;;
10465;SDS011;5280;42.600;23.556;2023-03-16T01:24:43;0.83;;;0.83;;
10465;SDS011;5280;42.600;23.556;2023-03-16T01:27:11;0.80;;;0.80;;
10465;SDS011;5280;42.600;23.556;2023-03-16T01:29:38;0.80;;;0.80;;
10465;SDS011;5280;42.600;23.556;2023-03-16T01:32:07;0.37;;;0.37;;
10465;SDS011;5280;42.600;23.556;2023-03-16T01:34:36;0.80;;;0.80;;
10465;SDS011;5280;42.600;23.556;2023-03-16T01:37:03;0.70;;;0.70;;
10465;SDS011;5280;42.600;23.556;2023-03-16T01:39:29;0.47;;;0.47;;
10465;SDS011;5280;42.600;23.556;2023-03-16T01:41:56;0.67;;;0.67;;
10465;SDS011;5280;42.600;23.556;2023-03-16T01:44:24;0.80;;;0.80;;
10465;SDS011;5280;42.600;23.556;2023-03-16T01:46:54;0.90;;;0.90;;
10465;SDS011;5280;42.600;23.556;2023-03-16T01:49:22;0.80;;;0.80;;
10465;SDS011;5280;42.600;23.556;2023-03-16T01:51:53;0.83;;;0.83;;
10465;SDS011;5280;42.600;23.556;2023-03-16T01:54:24;0.70;;;0.70;;
10465;SDS011;5280;42.600;23.556;2023-03-16T01:56:56;0.87;;;0.87;;
10465;SDS011;5280;42.600;23.556;2023-03-16T01:59:27;0.80;;;0.80;;
10465;SDS011;5280;42.600;23.556;2023-03-16T02:01:57;0.90;;;0.90;;
10465;SDS011;5280;42.600;23.556;2023-03-16T02:07:13;0.77;;;0.77;;
10465;SDS011;5280;42.600;23.556;2023-03-16T02:09:43;0.77;;;0.77;;
10465;SDS011;5280;42.600;23.556;2023-03-16T02:12:13;0.90;;;0.90;;
10465;SDS011;5280;42.600;23.556;2023-03-16T02:14:43;0.90;;;0.90;;
10465;SDS011;5280;42.600;23.556;2023-03-16T02:17:10;1.10;;;1.10;;
10465;SDS011;5280;42.600;23.556;2023-03-16T02:19:40;0.93;;;0.93;;
10465;SDS011;5280;42.600;23.556;2023-03-16T02:22:13;0.67;;;0.67;;
10465;SDS011;5280;42.600;23.556;2023-03-16T02:24:41;0.80;;;0.77;;
10465;SDS011;5280;42.600;23.556;2023-03-16T02:27:09;0.80;;;0.80;;
10465;SDS011;5280;42.600;23.556;2023-03-16T02:29:51;0.77;;;0.77;;
10465;SDS011;5280;42.600;23.556;2023-03-16T02:32:23;0.70;;;0.70;;
10465;SDS011;5280;42.600;23.556;2023-03-16T02:34:51;0.80;;;0.80;;
10465;SDS011;5280;42.600;23.556;2023-03-16T02:37:19;0.90;;;0.90;;
10465;SDS011;5280;42.600;23.556;2023-03-16T02:39:46;0.80;;;0.80;;
10465;SDS011;5280;42.600;23.556;2023-03-16T02:42:14;0.60;;;0.60;;
10465;SDS011;5280;42.600;23.556;2023-03-16T02:44:44;0.73;;;0.73;;
10465;SDS011;5280;42.600;23.556;2023-03-16T02:47:16;0.90;;;0.90;;
10465;SDS011;5280;42.600;23.556;2023-03-16T02:49:49;0.93;;;0.93;;
10465;SDS011;5280;42.600;23.556;2023-03-16T02:52:15;0.70;;;0.70;;
10465;SDS011;5280;42.600;23.556;2023-03-16T02:54:42;0.60;;;0.60;;
10465;SDS011;5280;42.600;23.556;2023-03-16T02:57:09;0.53;;;0.53;;
10465;SDS011;5280;42.600;23.556;2023-03-16T02:59:36;0.90;;;0.90;;
10465;SDS011;5280;42.600;23.556;2023-03-16T03:02:03;0.83;;;0.83;;
10465;SDS011;5280;42.600;23.556;2023-03-16T03:04:31;0.80;;;0.80;;
10465;SDS011;5280;42.600;23.556;2023-03-16T03:06:58;0.70;;;0.70;;
10465;SDS011;5280;42.600;23.556;2023-03-16T03:09:29;1.10;;;1.10;;
10465;SDS011;5280;42.600;23.556;2023-03-16T03:11:57;0.80;;;0.80;;
10465;SDS011;5280;42.600;23.556;2023-03-16T03:14:23;1.00;;;1.00;;
10465;SDS011;5280;42.600;23.556;2023-03-16T03:16:52;1.20;;;1.20;;
10465;SDS011;5280;42.600;23.556;2023-03-16T03:19:19;1.00;;;1.00;;
10465;SDS011;5280;42.600;23.556;2023-03-16T03:21:48;0.80;;;0.80;;
10465;SDS011;5280;42.600;23.556;2023-03-16T03:24:16;0.80;;;0.80;;
10465;SDS011;5280;42.600;23.556;2023-03-16T03:26:43;0.87;;;0.87;;
10465;SDS011;5280;42.600;23.556;2023-03-16T03:29:10;1.23;;;0.63;;
10465;SDS011;5280;42.600;23.556;2023-03-16T03:31:37;1.07;;;1.03;;
10465;SDS011;5280;42.600;23.556;2023-03-16T03:34:04;0.90;;;0.90;;
10465;SDS011;5280;42.600;23.556;2023-03-16T03:36:31;0.50;;;0.50;;
10465;SDS011;5280;42.600;23.556;2023-03-16T03:39:00;0.53;;;0.53;;
10465;SDS011;5280;42.600;23.556;2023-03-16T03:41:29;0.60;;;0.60;;
10465;SDS011;5280;42.600;23.556;2023-03-16T03:43:57;0.70;;;0.70;;
10465;SDS011;5280;42.600;23.556;2023-03-16T03:46:23;0.60;;;0.60;;
10465;SDS011;5280;42.600;23.556;2023-03-16T03:48:50;0.63;;;0.63;;
10465;SDS011;5280;42.600;23.556;2023-03-16T03:51:17;0.60;;;0.60;;
10465;SDS011;5280;42.600;23.556;2023-03-16T03:53:45;0.40;;;0.40;;
10465;SDS011;5280;42.600;23.556;2023-03-16T03:56:13;0.40;;;0.40;;
10465;SDS011;5280;42.600;23.556;2023-03-16T03:58:40;0.70;;;0.70;;
10465;SDS011;5280;42.600;23.556;2023-03-16T04:01:07;0.60;;;0.60;;
10465;SDS011;5280;42.600;23.556;2023-03-16T04:03:34;0.53;;;0.53;;
10465;SDS011;5280;42.600;23.556;2023-03-16T04:06:00;0.60;;;0.60;;
10465;SDS011;5280;42.600;23.556;2023-03-16T04:08:28;0.70;;;0.70;;
10465;SDS011;5280;42.600;23.556;2023-03-16T04:10:55;0.40;;;0.40;;
10465;SDS011;5280;42.600;23.556;2023-03-16T04:13:23;0.50;;;0.50;;
10465;SDS011;5280;42.600;23.556;2023-03-16T04:15:54;1.33;;;0.93;;
10465;SDS011;5280;42.600;23.556;2023-03-16T04:18:22;0.70;;;0.70;;
10465;SDS011;5280;42.600;23.556;2023-03-16T04:20:49;1.33;;;0.67;;
10465;SDS011;5280;42.600;23.556;2023-03-16T04:23:17;0.83;;;0.40;;
10465;SDS011;5280;42.600;23.556;2023-03-16T04:25:44;0.67;;;0.67;;
10465;SDS011;5280;42.600;23.556;2023-03-16T04:28:11;0.60;;;0.60;;
10465;SDS011;5280;42.600;23.556;2023-03-16T04:30:39;0.50;;;0.50;;
10465;SDS011;5280;42.600;23.556;2023-03-16T04:33:07;0.53;;;0.53;;
10465;SDS011;5280;42.600;23.556;2023-03-16T04:35:33;0.50;;;0.50;;
10465;SDS011;5280;42.600;23.556;2023-03-16T04:38:00;0.63;;;0.63;;
10465;SDS011;5280;42.600;23.556;2023-03-16T04:40:27;0.57;;;0.57;;
10465;SDS011;5280;42.600;23.556;2023-03-16T04:42:54;0.73;;;0.73;;
10465;SDS011;5280;42.600;23.556;2023-03-16T04:45:21;0.70;;;0.70;;
10465;SDS011;5280;42.600;23.556;2023-03-16T04:47:49;0.80;;;0.80;;
10465;SDS011;5280;42.600;23.556;2023-03-16T04:50:16;0.50;;;0.50;;
10465;SDS011;5280;42.600;23.556;2023-03-16T04:52:43;0.70;;;0.53;;
10465;SDS011;5280;42.600;23.556;2023-03-16T04:55:10;0.53;;;0.53;;
10465;SDS011;5280;42.600;23.556;2023-03-16T04:57:37;0.60;;;0.60;;
10465;SDS011;5280;42.600;23.556;2023-03-16T05:00:04;0.50;;;0.50;;
10465;SDS011;5280;42.600;23.556;2023-03-16T05:02:36;0.70;;;0.70;;
10465;SDS011;5280;42.600;23.556;2023-03-16T05:05:04;0.70;;;0.70;;
10465;SDS011;5280;42.600;23.556;2023-03-16T05:07:31;0.70;;;0.70;;
10465;SDS011;5280;42.600;23.556;2023-03-16T05:09:58;0.60;;;0.60;;
10465;SDS011;5280;42.600;23.556;2023-03-16T05:12:25;0.50;;;0.50;;
10465;SDS011;5280;42.600;23.556;2023-03-16T05:14:51;0.70;;;0.70;;
10465;SDS011;5280;42.600;23.556;2023-03-16T05:17:18;0.80;;;0.80;;
10465;SDS011;5280;42.600;23.556;2023-03-16T05:19:46;0.50;;;0.50;;
10465;SDS011;5280;42.600;23.556;2023-03-16T05:22:14;0.60;;;0.60;;
10465;SDS011;5280;42.600;23.556;2023-03-16T05:24:41;0.70;;;0.70;;
10465;SDS011;5280;42.600;23.556;2023-03-16T05:27:08;1.70;;;0.70;;
10465;SDS011;5280;42.600;23.556;2023-03-16T05:29:34;0.67;;;0.67;;
10465;SDS011;5280;42.600;23.556;2023-03-16T05:32:02;0.60;;;0.60;;
10465;SDS011;5280;42.600;23.556;2023-03-16T05:34:28;0.60;;;0.60;;
10465;SDS011;5280;42.600;23.556;2023-03-16T05:36:55;1.00;;;0.97;;
10465;SDS011;5280;42.600;23.556;2023-03-16T05:39:24;1.23;;;1.13;;
10465;SDS011;5280;42.600;23.556;2023-03-16T05:41:52;0.67;;;0.67;;
10465;SDS011;5280;42.600;23.556;2023-03-16T05:44:20;0.70;;;0.70;;
10465;SDS011;5280;42.600;23.556;2023-03-16T05:46:49;0.80;;;0.80;;
10465;SDS011;5280;42.600;23.556;2023-03-16T05:49:16;0.77;;;0.77;;
10465;SDS011;5280;42.600;23.556;2023-03-16T05:51:43;0.60;;;0.60;;
10465;SDS011;5280;42.600;23.556;2023-03-16T05:54:10;0.60;;;0.60;;
10465;SDS011;5280;42.600;23.556;2023-03-16T05:56:38;4.37;;;0.90;;
10465;SDS011;5280;42.600;23.556;2023-03-16T05:59:04;0.60;;;0.60;;
10465;SDS011;5280;42.600;23.556;2023-03-16T06:01:31;0.60;;;0.60;;
10465;SDS011;5280;42.600;23.556;2023-03-16T06:03:59;0.70;;;0.70;;
10465;SDS011;5280;42.600;23.556;2023-03-16T06:06:27;1.13;;;1.00;;
10465;SDS011;5280;42.600;23.556;2023-03-16T06:08:54;0.80;;;0.80;;
10465;SDS011;5280;42.600;23.556;2023-03-16T06:11:21;1.10;;;1.00;;
10465;SDS011;5280;42.600;23.556;2023-03-16T06:13:49;0.70;;;0.70;;
10465;SDS011;5280;42.600;23.556;2023-03-16T06:16:16;0.80;;;0.80;;
10465;SDS011;5280;42.600;23.556;2023-03-16T06:18:42;1.33;;;0.57;;
10465;SDS011;5280;42.600;23.556;2023-03-16T06:21:09;0.87;;;0.70;;
10465;SDS011;5280;42.600;23.556;2023-03-16T06:23:36;0.73;;;0.73;;
10465;SDS011;5280;42.600;23.556;2023-03-16T06:26:03;0.80;;;0.80;;
10465;SDS011;5280;42.600;23.556;2023-03-16T06:28:30;1.00;;;1.00;;
10465;SDS011;5280;42.600;23.556;2023-03-16T06:30:58;1.17;;;1.17;;
10465;SDS011;5280;42.600;23.556;2023-03-16T06:33:25;11.27;;;1.10;;
10465;SDS011;5280;42.600;23.556;2023-03-16T06:35:52;1.40;;;1.30;;
10465;SDS011;5280;42.600;23.556;2023-03-16T06:38:19;0.90;;;0.90;;
10465;SDS011;5280;42.600;23.556;2023-03-16T06:40:50;0.90;;;0.90;;
10465;SDS011;5280;42.600;23.556;2023-03-16T06:43:17;1.10;;;1.00;;
10465;SDS011;5280;42.600;23.556;2023-03-16T06:45:44;2.53;;;2.33;;
10465;SDS011;5280;42.600;23.556;2023-03-16T06:48:12;1.23;;;1.17;;
10465;SDS011;5280;42.600;23.556;2023-03-16T06:50:39;2.20;;;2.00;;
10465;SDS011;5280;42.600;23.556;2023-03-16T06:53:06;1.60;;;1.50;;
10465;SDS011;5280;42.600;23.556;2023-03-16T06:55:33;3.47;;;2.30;;
10465;SDS011;5280;42.600;23.556;2023-03-16T06:58:00;4.00;;;3.30;;
10465;SDS011;5280;42.600;23.556;2023-03-16T07:00:26;1.90;;;1.80;;
10465;SDS011;5280;42.600;23.556;2023-03-16T07:02:54;1.50;;;1.40;;
10465;SDS011;5280;42.600;23.556;2023-03-16T07:05:22;1.10;;;1.10;;
10465;SDS011;5280;42.600;23.556;2023-03-16T07:07:49;1.50;;;1.40;;
10465;SDS011;5280;42.600;23.556;2023-03-16T07:10:16;1.30;;;1.20;;
10465;SDS011;5280;42.600;23.556;2023-03-16T07:12:43;1.43;;;1.33;;
10465;SDS011;5280;42.600;23.556;2023-03-16T07:15:11;1.53;;;1.43;;
10465;SDS011;5280;42.600;23.556;2023-03-16T07:17:38;1.70;;;1.60;;
10465;SDS011;5280;42.600;23.556;2023-03-16T07:20:07;1.20;;;1.10;;
10465;SDS011;5280;42.600;23.556;2023-03-16T07:22:36;1.70;;;1.60;;
10465;SDS011;5280;42.600;23.556;2023-03-16T07:25:04;1.30;;;1.20;;
10465;SDS011;5280;42.600;23.556;2023-03-16T07:27:32;1.07;;;1.03;;
10465;SDS011;5280;42.600;23.556;2023-03-16T07:29:59;1.00;;;0.90;;
10465;SDS011;5280;42.600;23.556;2023-03-16T07:32:26;1.00;;;0.90;;
10465;SDS011;5280;42.600;23.556;2023-03-16T07:34:53;0.70;;;0.70;;
10465;SDS011;5280;42.600;23.556;2023-03-16T07:37:22;0.87;;;0.87;;
10465;SDS011;5280;42.600;23.556;2023-03-16T07:39:50;1.27;;;1.20;;
10465;SDS011;5280;42.600;23.556;2023-03-16T07:42:17;1.10;;;1.10;;
10465;SDS011;5280;42.600;23.556;2023-03-16T07:44:44;1.50;;;1.40;;
10465;SDS011;5280;42.600;23.556;2023-03-16T07:47:11;1.27;;;1.27;;
10465;SDS011;5280;42.600;23.556;2023-03-16T07:49:40;1.30;;;1.30;;
10465;SDS011;5280;42.600;23.556;2023-03-16T07:52:08;1.87;;;1.77;;
10465;SDS011;5280;42.600;23.556;2023-03-16T07:54:37;1.57;;;1.47;;
10465;SDS011;5280;42.600;23.556;2023-03-16T07:57:06;1.50;;;1.40;;
10465;SDS011;5280;42.600;23.556;2023-03-16T07:59:33;1.23;;;1.13;;
10465;SDS011;5280;42.600;23.556;2023-03-16T08:02:00;3.30;;;1.10;;
10465;SDS011;5280;42.600;23.556;2023-03-16T08:04:30;1.80;;;1.30;;
10465;SDS011;5280;42.600;23.556;2023-03-16T08:06:57;2.20;;;1.20;;
10465;SDS011;5280;42.600;23.556;2023-03-16T08:09:26;1.57;;;1.40;;
10465;SDS011;5280;42.600;23.556;2023-03-16T08:11:53;1.20;;;1.10;;
10465;SDS011;5280;42.600;23.556;2023-03-16T08:14:21;1.60;;;1.50;;
10465;SDS011;5280;42.600;23.556;2023-03-16T08:16:48;1.80;;;1.70;;
10465;SDS011;5280;42.600;23.556;2023-03-16T08:19:15;1.50;;;1.37;;
10465;SDS011;5280;42.600;23.556;2023-03-16T08:21:44;1.40;;;1.30;;
10465;SDS011;5280;42.600;23.556;2023-03-16T08:24:11;1.70;;;1.60;;
10465;SDS011;5280;42.600;23.556;2023-03-16T08:26:38;1.10;;;1.10;;
10465;SDS011;5280;42.600;23.556;2023-03-16T08:29:04;1.20;;;1.10;;
10465;SDS011;5280;42.600;23.556;2023-03-16T08:31:33;1.43;;;1.33;;
10465;SDS011;5280;42.600;23.556;2023-03-16T08:33:59;1.27;;;1.20;;
10465;SDS011;5280;42.600;23.556;2023-03-16T08:36:26;1.10;;;1.10;;
10465;SDS011;5280;42.600;23.556;2023-03-16T08:38:54;1.10;;;1.03;;
10465;SDS011;5280;42.600;23.556;2023-03-16T08:41:22;1.27;;;1.20;;
10465;SDS011;5280;42.600;23.556;2023-03-16T08:43:48;1.60;;;1.50;;
10465;SDS011;5280;42.600;23.556;2023-03-16T08:46:16;1.00;;;0.90;;
10465;SDS011;5280;42.600;23.556;2023-03-16T08:48:44;1.43;;;1.33;;
10465;SDS011;5280;42.600;23.556;2023-03-16T08:51:12;1.47;;;1.33;;
10465;SDS011;5280;42.600;23.556;2023-03-16T08:53:39;1.40;;;1.30;;
10465;SDS011;5280;42.600;23.556;2023-03-16T08:56:07;1.47;;;1.37;;
10465;SDS011;5280;42.600;23.556;2023-03-16T08:58:36;1.10;;;1.10;;
10465;SDS011;5280;42.600;23.556;2023-03-16T09:01:06;1.40;;;1.30;;
10465;SDS011;5280;42.600;23.556;2023-03-16T09:03:33;1.17;;;1.10;;
10465;SDS011;5280;42.600;23.556;2023-03-16T09:06:03;1.27;;;1.17;;
10465;SDS011;5280;42.600;23.556;2023-03-16T09:08:32;3.43;;;1.20;;
10465;SDS011;5280;42.600;23.556;2023-03-16T09:10:59;1.27;;;1.20;;
10465;SDS011;5280;42.600;23.556;2023-03-16T09:13:28;1.70;;;1.60;;
10465;SDS011;5280;42.600;23.556;2023-03-16T09:15:55;3.50;;;3.20;;
10465;SDS011;5280;42.600;23.556;2023-03-16T09:18:23;1.47;;;1.37;;
10465;SDS011;5280;42.600;23.556;2023-03-16T09:20:51;1.23;;;1.13;;
10465;SDS011;5280;42.600;23.556;2023-03-16T09:23:19;1.00;;;1.00;;
10465;SDS011;5280;42.600;23.556;2023-03-16T09:25:46;1.30;;;1.20;;
10465;SDS011;5280;42.600;23.556;2023-03-16T09:28:13;1.10;;;1.00;;
10465;SDS011;5280;42.600;23.556;2023-03-16T09:30:41;1.10;;;1.10;;
10465;SDS011;5280;42.600;23.556;2023-03-16T09:33:08;1.43;;;1.37;;
10465;SDS011;5280;42.600;23.556;2023-03-16T09:35:35;1.13;;;1.13;;
10465;SDS011;5280;42.600;23.556;2023-03-16T09:38:02;3.03;;;2.00;;
10465;SDS011;5280;42.600;23.556;2023-03-16T09:40:30;5.13;;;1.60;;
10465;SDS011;5280;42.600;23.556;2023-03-16T09:43:01;1.60;;;1.50;;
10465;SDS011;5280;42.600;23.556;2023-03-16T09:45:41;1.37;;;1.37;;
10465;SDS011;5280;42.600;23.556;2023-03-16T09:48:12;1.67;;;1.50;;
10465;SDS011;5280;42.600;23.556;2023-03-16T09:50:42;2.00;;;1.50;;
10465;SDS011;5280;42.600;23.556;2023-03-16T09:53:13;1.50;;;1.40;;
10465;SDS011;5280;42.600;23.556;2023-03-16T09:55:50;2.90;;;1.50;;
10465;SDS011;5280;42.600;23.556;2023-03-16T09:58:20;1.17;;;1.13;;
10465;SDS011;5280;42.600;23.556;2023-03-16T10:00:49;1.17;;;1.17;;
10465;SDS011;5280;42.600;23.556;2023-03-16T10:03:29;1.70;;;1.60;;
10465;SDS011;5280;42.600;23.556;2023-03-16T10:06:13;1.40;;;1.30;;
10465;SDS011;5280;42.600;23.556;2023-03-16T10:08:42;1.63;;;1.47;;
10465;SDS011;5280;42.600;23.556;2023-03-16T10:11:16;1.93;;;1.83;;
10465;SDS011;5280;42.600;23.556;2023-03-16T10:13:54;1.67;;;1.57;;
10465;SDS011;5280;42.600;23.556;2023-03-16T10:16:27;1.60;;;1.50;;
10465;SDS011;5280;42.600;23.556;2023-03-16T10:19:00;2.43;;;2.23;;
10465;SDS011;5280;42.600;23.556;2023-03-16T10:21:35;2.70;;;1.80;;
10465;SDS011;5280;42.600;23.556;2023-03-16T10:24:08;1.60;;;1.50;;
10465;SDS011;5280;42.600;23.556;2023-03-16T10:26:52;1.50;;;1.40;;
10465;SDS011;5280;42.600;23.556;2023-03-16T10:29:24;1.90;;;1.80;;
10465;SDS011;5280;42.600;23.556;2023-03-16T10:31:51;1.80;;;1.70;;
10465;SDS011;5280;42.600;23.556;2023-03-16T10:34:20;2.53;;;2.33;;
10465;SDS011;5280;42.600;23.556;2023-03-16T10:36:47;2.37;;;2.17;;
10465;SDS011;5280;42.600;23.556;2023-03-16T10:39:17;2.57;;;2.37;;
10465;SDS011;5280;42.600;23.556;2023-03-16T10:41:46;2.50;;;2.30;;
10465;SDS011;5280;42.600;23.556;2023-03-16T10:44:22;2.40;;;2.20;;
10465;SDS011;5280;42.600;23.556;2023-03-16T10:46:57;2.27;;;2.13;;
10465;SDS011;5280;42.600;23.556;2023-03-16T10:49:26;2.03;;;1.83;;
10465;SDS011;5280;42.600;23.556;2023-03-16T10:51:55;2.77;;;2.57;;
10465;SDS011;5280;42.600;23.556;2023-03-16T10:54:26;2.70;;;2.50;;
10465;SDS011;5280;42.600;23.556;2023-03-16T10:56:56;3.53;;;2.50;;
10465;SDS011;5280;42.600;23.556;2023-03-16T10:59:27;2.40;;;2.20;;
10465;SDS011;5280;42.600;23.556;2023-03-16T11:01:57;2.70;;;2.50;;
10465;SDS011;5280;42.600;23.556;2023-03-16T11:04:29;2.30;;;2.10;;
10465;SDS011;5280;42.600;23.556;2023-03-16T11:06:56;2.43;;;2.30;;
10465;SDS011;5280;42.600;23.556;2023-03-16T11:09:24;2.50;;;2.30;;
10465;SDS011;5280;42.600;23.556;2023-03-16T11:11:58;3.20;;;2.90;;
10465;SDS011;5280;42.600;23.556;2023-03-16T11:14:27;2.57;;;2.37;;
10465;SDS011;5280;42.600;23.556;2023-03-16T11:16:57;2.33;;;2.13;;
10465;SDS011;5280;42.600;23.556;2023-03-16T11:19:28;2.77;;;2.57;;
10465;SDS011;5280;42.600;23.556;2023-03-16T11:21:59;2.83;;;2.63;;
10465;SDS011;5280;42.600;23.556;2023-03-16T11:24:36;3.80;;;2.40;;
10465;SDS011;5280;42.600;23.556;2023-03-16T11:27:13;2.23;;;2.13;;
10465;SDS011;5280;42.600;23.556;2023-03-16T11:29:50;2.07;;;1.97;;
10465;SDS011;5280;42.600;23.556;2023-03-16T11:32:31;2.07;;;1.90;;
10465;SDS011;5280;42.600;23.556;2023-03-16T11:35:01;3.03;;;2.43;;
10465;SDS011;5280;42.600;23.556;2023-03-16T11:37:37;2.77;;;2.57;;
10465;SDS011;5280;42.600;23.556;2023-03-16T11:40:17;2.90;;;2.50;;
10465;SDS011;5280;42.600;23.556;2023-03-16T11:42:57;2.83;;;2.63;;
10465;SDS011;5280;42.600;23.556;2023-03-16T11:45:29;3.13;;;2.90;;
10465;SDS011;5280;42.600;23.556;2023-03-16T11:48:14;2.43;;;2.23;;
10465;SDS011;5280;42.600;23.556;2023-03-16T11:50:57;2.63;;;2.43;;
10465;SDS011;5280;42.600;23.556;2023-03-16T11:53:42;2.70;;;2.50;;
10465;SDS011;5280;42.600;23.556;2023-03-16T11:56:16;2.53;;;2.40;;
10465;SDS011;5280;42.600;23.556;2023-03-16T11:59:02;2.67;;;2.47;;
10465;SDS011;5280;42.600;23.556;2023-03-16T12:01:46;2.80;;;2.60;;
10465;SDS011;5280;42.600;23.556;2023-03-16T12:07:22;3.27;;;3.00;;
10465;SDS011;5280;42.600;23.556;2023-03-16T12:10:02;2.70;;;2.50;;
10465;SDS011;5280;42.600;23.556;2023-03-16T12:12:45;3.07;;;2.57;;
10465;SDS011;5280;42.600;23.556;2023-03-16T12:15:28;4.60;;;3.67;;
10465;SDS011;5280;42.600;23.556;2023-03-16T12:18:04;4.10;;;3.10;;
10465;SDS011;5280;42.600;23.556;2023-03-16T12:20:37;3.40;;;3.10;;
10465;SDS011;5280;42.600;23.556;2023-03-16T12:23:12;3.50;;;3.30;;
10465;SDS011;5280;42.600;23.556;2023-03-16T12:25:44;3.83;;;2.77;;
10465;SDS011;5280;42.600;23.556;2023-03-16T12:28:15;3.67;;;3.23;;
10465;SDS011;5280;42.600;23.556;2023-03-16T12:30:51;3.17;;;2.87;;
10465;SDS011;5280;42.600;23.556;2023-03-16T12:33:30;3.23;;;3.03;;
10465;SDS011;5280;42.600;23.556;2023-03-16T12:36:17;4.40;;;4.00;;
10465;SDS011;5280;42.600;23.556;2023-03-16T12:39:01;5.70;;;3.83;;
10465;SDS011;5280;42.600;23.556;2023-03-16T12:41:32;3.10;;;2.90;;
10465;SDS011;5280;42.600;23.556;2023-03-16T12:44:09;3.30;;;3.00;;
10465;SDS011;5280;42.600;23.556;2023-03-16T12:46:44;3.60;;;3.30;;
10465;SDS011;5280;42.600;23.556;2023-03-16T12:49:23;3.70;;;3.40;;
10465;SDS011;5280;42.600;23.556;2023-03-16T12:51:59;4.73;;;3.73;;
10465;SDS011;5280;42.600;23.556;2023-03-16T12:54:27;4.33;;;3.93;;
10465;SDS011;5280;42.600;23.556;2023-03-16T12:56:58;4.33;;;4.00;;
10465;SDS011;5280;42.600;23.556;2023-03-16T12:59:34;5.00;;;4.50;;
10465;SDS011;5280;42.600;23.556;2023-03-16T13:02:07;4.03;;;3.63;;
10465;SDS011;5280;42.600;23.556;2023-03-16T13:04:39;4.83;;;4.03;;
10465;SDS011;5280;42.600;23.556;2023-03-16T13:07:14;4.17;;;3.77;;
10465;SDS011;5280;42.600;23.556;2023-03-16T13:09:45;5.17;;;4.67;;
10465;SDS011;5280;42.600;23.556;2023-03-16T13:12:21;4.30;;;3.90;;
10465;SDS011;5280;42.600;23.556;2023-03-16T13:14:50;4.23;;;3.83;;
10465;SDS011;5280;42.600;23.556;2023-03-16T13:17:24;3.90;;;3.60;;
10465;SDS011;5280;42.600;23.556;2023-03-16T13:19:57;4.00;;;3.70;;
10465;SDS011;5280;42.600;23.556;2023-03-16T13:22:26;4.07;;;3.77;;
10465;SDS011;5280;42.600;23.556;2023-03-16T13:24:57;5.03;;;4.20;;
10465;SDS011;5280;42.600;23.556;2023-03-16T13:27:36;5.07;;;4.57;;
10465;SDS011;5280;42.600;23.556;2023-03-16T13:30:15;4.97;;;4.57;;
10465;SDS011;5280;42.600;23.556;2023-03-16T13:32:46;4.93;;;4.43;;
10465;SDS011;5280;42.600;23.556;2023-03-16T13:35:17;5.30;;;4.80;;
10465;SDS011;5280;42.600;23.556;2023-03-16T13:37:46;4.80;;;4.40;;
10465;SDS011;5280;42.600;23.556;2023-03-16T13:40:15;4.63;;;4.23;;
10465;SDS011;5280;42.600;23.556;2023-03-16T13:42:45;6.77;;;5.07;;
10465;SDS011;5280;42.600;23.556;2023-03-16T13:45:17;5.43;;;4.43;;
10465;SDS011;5280;42.600;23.556;2023-03-16T13:47:49;5.00;;;4.33;;
10465;SDS011;5280;42.600;23.556;2023-03-16T13:50:17;5.60;;;4.93;;
10465;SDS011;5280;42.600;23.556;2023-03-16T13:52:55;5.40;;;4.90;;
10465;SDS011;5280;42.600;23.556;2023-03-16T13:55:25;5.13;;;4.63;;
10465;SDS011;5280;42.600;23.556;2023-03-16T13:57:57;6.03;;;5.20;;
10465;SDS011;5280;42.600;23.556;2023-03-16T14:00:26;6.03;;;4.90;;
10465;SDS011;5280;42.600;23.556;2023-03-16T14:02:58;6.00;;;5.27;;
10465;SDS011;5280;42.600;23.556;2023-03-16T14:05:29;6.63;;;5.93;;
10465;SDS011;5280;42.600;23.556;2023-03-16T14:07:59;7.37;;;6.23;;
10465;SDS011;5280;42.600;23.556;2023-03-16T14:10:30;7.50;;;6.23;;
10465;SDS011;5280;42.600;23.556;2023-03-16T14:13:05;6.10;;;5.50;;
10465;SDS011;5280;42.600;23.556;2023-03-16T14:15:34;7.73;;;6.60;;
10465;SDS011;5280;42.600;23.556;2023-03-16T14:18:12;6.27;;;5.67;;
10465;SDS011;5280;42.600;23.556;2023-03-16T14:20:45;7.57;;;6.50;;
10465;SDS011;5280;42.600;23.556;2023-03-16T14:23:15;8.30;;;7.33;;
10465;SDS011;5280;42.600;23.556;2023-03-16T14:25:43;8.83;;;6.07;;
10465;SDS011;5280;42.600;23.556;2023-03-16T14:28:13;8.60;;;7.70;;
10465;SDS011;5280;42.600;23.556;2023-03-16T14:30:48;8.30;;;7.30;;
10465;SDS011;5280;42.600;23.556;2023-03-16T14:33:24;7.97;;;7.13;;
10465;SDS011;5280;42.600;23.556;2023-03-16T14:35:54;9.83;;;7.83;;
10465;SDS011;5280;42.600;23.556;2023-03-16T14:38:27;8.57;;;7.67;;
10465;SDS011;5280;42.600;23.556;2023-03-16T14:40:57;8.47;;;7.57;;
10465;SDS011;5280;42.600;23.556;2023-03-16T14:43:29;12.30;;;9.67;;
10465;SDS011;5280;42.600;23.556;2023-03-16T14:45:57;8.63;;;6.23;;
10465;SDS011;5280;42.600;23.556;2023-03-16T14:48:27;8.23;;;7.20;;
10465;SDS011;5280;42.600;23.556;2023-03-16T14:50:55;9.47;;;8.43;;
10465;SDS011;5280;42.600;23.556;2023-03-16T14:53:25;8.33;;;7.43;;
10465;SDS011;5280;42.600;23.556;2023-03-16T14:55:53;10.53;;;8.23;;
10465;SDS011;5280;42.600;23.556;2023-03-16T14:58:20;8.80;;;7.53;;
10465;SDS011;5280;42.600;23.556;2023-03-16T15:00:46;10.93;;;8.93;;
10465;SDS011;5280;42.600;23.556;2023-03-16T15:03:17;11.30;;;8.43;;
10465;SDS011;5280;42.600;23.556;2023-03-16T15:05:47;11.77;;;8.97;;
10465;SDS011;5280;42.600;23.556;2023-03-16T15:08:16;10.80;;;9.13;;
10465;SDS011;5280;42.600;23.556;2023-03-16T15:10:47;12.03;;;8.90;;
10465;SDS011;5280;42.600;23.556;2023-03-16T15:13:16;12.37;;;10.13;;